createdAt,value
2019-01-31T00:00:45.485Z,16.37
2019-01-31T00:03:42.709Z,20.57
2019-01-31T00:06:53.782Z,21.50
2019-01-31T00:10:02.234Z,20.90
2019-01-31T00:12:59.889Z,19.77
2019-01-31T00:15:55.055Z,19.50
2019-01-31T00:18:31.469Z,21.20
2019-01-31T00:21:37.082Z,18.77
2019-01-31T00:24:31.083Z,19.33
2019-01-31T00:27:36.345Z,19.77
2019-01-31T00:30:16.442Z,20.67
2019-01-31T00:33:16.553Z,21.47
2019-01-31T00:35:56.388Z,23.30
2019-01-31T00:39:24.237Z,24.03
2019-01-31T00:42:39.761Z,21.13
2019-01-31T00:45:46.301Z,21.63
2019-01-31T00:48:42.033Z,20.30
2019-01-31T00:51:27.805Z,19.17
2019-01-31T00:54:39.214Z,16.40
2019-01-31T00:57:48.680Z,16.43
2019-01-31T01:00:58.745Z,16.20
2019-01-31T01:04:00.394Z,15.77
2019-01-31T01:07:17.577Z,14.87
2019-01-31T01:10:32.961Z,15.93
2019-01-31T01:13:43.614Z,16.50
2019-01-31T01:16:38.594Z,16.20
2019-01-31T01:19:47.013Z,16.43
2019-01-31T01:22:51.265Z,22.60
2019-01-31T01:26:08.487Z,26.30
2019-01-31T01:29:16.854Z,21.10
2019-01-31T01:32:26.494Z,17.47
2019-01-31T01:35:41.934Z,16.73
2019-01-31T01:39:06.290Z,16.43
2019-01-31T01:41:52.712Z,16.30
2019-01-31T01:45:01.130Z,14.00
2019-01-31T01:47:37.653Z,12.73
2019-01-31T01:50:21.110Z,10.63
2019-01-31T01:53:39.438Z,11.17
2019-01-31T01:57:22.373Z,11.27
2019-01-31T02:00:26.731Z,13.37
2019-01-31T02:03:12.992Z,15.23
2019-01-31T02:06:16.545Z,14.57
2019-01-31T02:09:31.104Z,15.33
2019-01-31T02:12:39.321Z,17.43
2019-01-31T02:15:47.860Z,20.40
2019-01-31T02:18:46.680Z,18.97
2019-01-31T02:21:47.721Z,17.67
2019-01-31T02:24:26.341Z,17.97
2019-01-31T02:27:18.752Z,22.57
2019-01-31T02:30:26.997Z,18.37
2019-01-31T02:33:32.337Z,13.83
2019-01-31T02:36:39.764Z,13.73
2019-01-31T02:39:42.322Z,14.67
2019-01-31T02:42:34.842Z,13.00
2019-01-31T02:45:37.810Z,11.07
2019-01-31T02:48:32.409Z,10.37
2019-01-31T02:51:29.861Z,9.60
2019-01-31T02:54:10.130Z,8.47
2019-01-31T02:57:10.900Z,7.90
2019-01-31T03:00:26.405Z,7.37
2019-01-31T03:03:23.752Z,7.20
2019-01-31T03:06:28.515Z,7.60
2019-01-31T03:09:55.022Z,6.70
2019-01-31T03:12:41.553Z,6.87
2019-01-31T03:15:38.421Z,6.50
2019-01-31T03:18:53.821Z,6.57
2019-01-31T03:22:12.373Z,6.50
2019-01-31T03:25:18.209Z,5.13
2019-01-31T03:28:33.944Z,5.90
2019-01-31T03:31:44.747Z,5.30
2019-01-31T03:35:00.009Z,5.50
2019-01-31T03:37:52.997Z,5.90
2019-01-31T03:41:02.985Z,5.30
2019-01-31T03:44:10.823Z,5.60
2019-01-31T03:47:41.591Z,4.80
2019-01-31T03:50:19.551Z,5.03
2019-01-31T03:53:15.145Z,4.40
2019-01-31T03:56:26.925Z,5.23
2019-01-31T03:59:06.433Z,5.10
2019-01-31T04:02:30.776Z,5.60
2019-01-31T04:05:40.576Z,4.40
2019-01-31T04:08:09.168Z,4.90
2019-01-31T04:10:36.864Z,4.50
2019-01-31T04:13:04.718Z,5.23
2019-01-31T04:15:32.518Z,5.37
2019-01-31T04:18:00.206Z,4.90
2019-01-31T04:20:27.941Z,5.17
2019-01-31T04:22:55.651Z,4.67
2019-01-31T04:25:23.344Z,5.37
2019-01-31T04:27:51.518Z,6.10
2019-01-31T04:30:19.221Z,5.10
2019-01-31T04:32:46.914Z,5.10
2019-01-31T04:35:14.634Z,5.80
2019-01-31T04:37:42.339Z,4.70
2019-01-31T04:40:10.041Z,4.10
2019-01-31T04:42:37.816Z,4.50
2019-01-31T04:45:05.532Z,3.73
2019-01-31T04:47:33.265Z,3.80
2019-01-31T04:50:00.946Z,3.80
2019-01-31T04:52:28.667Z,4.90
2019-01-31T04:54:56.356Z,4.23
2019-01-31T04:57:24.089Z,4.43
2019-01-31T04:59:51.789Z,4.50
2019-01-31T05:02:19.481Z,3.70
2019-01-31T05:04:47.221Z,4.60
2019-01-31T05:07:14.926Z,5.03
2019-01-31T05:09:42.680Z,5.43
2019-01-31T05:12:10.401Z,4.60
2019-01-31T05:14:38.102Z,4.57
2019-01-31T05:17:05.805Z,4.33
2019-01-31T05:19:33.517Z,4.57
2019-01-31T05:22:01.231Z,4.87
2019-01-31T05:24:28.936Z,4.87
2019-01-31T05:26:56.661Z,4.63
2019-01-31T05:29:24.383Z,4.77
2019-01-31T05:31:52.077Z,4.33
2019-01-31T05:34:19.792Z,4.47
2019-01-31T05:36:47.606Z,5.13
2019-01-31T05:39:15.280Z,3.97
2019-01-31T05:41:42.998Z,3.90
2019-01-31T05:44:10.713Z,4.03
2019-01-31T05:46:38.570Z,4.40
2019-01-31T05:49:06.390Z,3.83
2019-01-31T05:51:34.216Z,4.93
2019-01-31T05:54:02.013Z,4.17
2019-01-31T05:56:29.730Z,3.83
2019-01-31T05:58:57.430Z,3.80
2019-01-31T06:01:25.154Z,3.70
2019-01-31T06:03:52.925Z,3.80
2019-01-31T06:06:20.862Z,3.93
2019-01-31T06:08:48.557Z,3.87
2019-01-31T06:11:16.479Z,4.67
2019-01-31T06:13:45.193Z,5.73
2019-01-31T06:16:12.901Z,4.50
2019-01-31T06:18:40.629Z,5.53
2019-01-31T06:21:08.371Z,5.27
2019-01-31T06:23:36.152Z,4.60
2019-01-31T06:26:03.905Z,4.30
2019-01-31T06:28:31.630Z,3.43
2019-01-31T06:30:59.477Z,4.27
2019-01-31T06:33:28.533Z,5.57
2019-01-31T06:35:56.296Z,5.77
2019-01-31T06:38:23.999Z,4.40
2019-01-31T06:40:51.689Z,4.90
2019-01-31T06:43:19.442Z,4.87
2019-01-31T06:45:47.145Z,4.40
2019-01-31T06:48:14.865Z,4.07
2019-01-31T06:50:42.581Z,5.20
2019-01-31T06:53:10.405Z,5.20
2019-01-31T06:55:38.088Z,4.23
2019-01-31T06:58:05.777Z,4.60
2019-01-31T07:00:33.491Z,3.87
2019-01-31T07:03:01.281Z,5.10
2019-01-31T07:05:28.991Z,4.60
2019-01-31T07:07:56.681Z,5.87
2019-01-31T07:10:25.691Z,5.27
2019-01-31T07:12:53.385Z,4.20
2019-01-31T07:15:21.264Z,4.80
2019-01-31T07:17:48.974Z,4.87
2019-01-31T07:20:16.664Z,4.87
2019-01-31T07:22:44.416Z,5.57
2019-01-31T07:25:15.049Z,5.60
2019-01-31T07:27:45.561Z,6.03
2019-01-31T07:30:13.510Z,6.07
2019-01-31T07:32:41.207Z,5.23
2019-01-31T07:35:10.265Z,4.97
2019-01-31T07:37:38.003Z,4.90
2019-01-31T07:40:06.077Z,4.63
2019-01-31T07:42:33.767Z,4.83
2019-01-31T07:45:01.573Z,4.63
2019-01-31T07:47:29.385Z,4.10
2019-01-31T07:49:57.085Z,6.03
2019-01-31T07:52:27.555Z,4.70
2019-01-31T07:54:55.301Z,4.60
2019-01-31T07:57:23.021Z,4.30
2019-01-31T07:59:50.721Z,4.50
2019-01-31T08:02:18.440Z,4.37
2019-01-31T08:04:46.144Z,4.10
2019-01-31T08:07:13.941Z,3.70
2019-01-31T08:09:41.670Z,4.63
2019-01-31T08:12:09.418Z,4.00
2019-01-31T08:14:37.133Z,3.93
2019-01-31T08:17:04.850Z,4.43
2019-01-31T08:19:32.574Z,4.50
2019-01-31T08:22:00.271Z,6.00
2019-01-31T08:24:27.989Z,5.13
2019-01-31T08:26:56.076Z,4.40
2019-01-31T08:29:23.797Z,4.57
2019-01-31T08:31:51.529Z,4.90
2019-01-31T08:34:19.251Z,4.77
2019-01-31T08:36:46.997Z,5.33
2019-01-31T08:39:14.780Z,4.20
2019-01-31T08:41:42.520Z,4.13
2019-01-31T08:44:10.261Z,4.47
2019-01-31T08:46:38.033Z,4.37
2019-01-31T08:49:05.724Z,3.83
2019-01-31T08:51:33.441Z,4.60
2019-01-31T08:54:01.146Z,4.80
2019-01-31T08:56:28.854Z,5.20
2019-01-31T08:58:56.565Z,6.07
2019-01-31T09:01:24.273Z,5.57
2019-01-31T09:03:51.978Z,4.63
2019-01-31T09:06:19.701Z,7.17
2019-01-31T09:08:47.434Z,4.07
2019-01-31T09:11:15.141Z,4.03
2019-01-31T09:13:42.836Z,4.20
2019-01-31T09:16:10.549Z,4.40
2019-01-31T09:18:38.241Z,4.37
2019-01-31T09:21:29.500Z,3.57
2019-01-31T09:24:16.411Z,3.70
2019-01-31T09:27:33.193Z,4.40
2019-01-31T09:30:44.635Z,4.63
2019-01-31T09:33:59.921Z,4.97
2019-01-31T09:37:00.817Z,4.60
2019-01-31T09:40:13.285Z,4.13
2019-01-31T09:43:06.282Z,5.13
2019-01-31T09:45:43.573Z,4.53
2019-01-31T09:48:35.317Z,4.30
2019-01-31T09:51:40.717Z,5.00
2019-01-31T09:54:21.937Z,4.60
2019-01-31T09:57:24.656Z,4.27
2019-01-31T10:00:14.305Z,4.37
2019-01-31T10:03:19.322Z,4.60
2019-01-31T10:06:24.739Z,5.20
2019-01-31T10:09:29.725Z,5.03
2019-01-31T10:12:48.641Z,4.93
2019-01-31T10:15:43.636Z,5.07
2019-01-31T10:18:49.578Z,5.13
2019-01-31T10:22:29.489Z,6.10
2019-01-31T10:25:21.704Z,5.37
2019-01-31T10:28:49.375Z,5.23
2019-01-31T10:31:43.940Z,6.40
2019-01-31T10:34:52.409Z,7.83
2019-01-31T10:38:04.773Z,5.07
2019-01-31T10:41:09.438Z,5.80
2019-01-31T10:44:19.033Z,7.67
2019-01-31T10:47:15.864Z,7.37
2019-01-31T10:50:37.096Z,6.53
2019-01-31T10:53:48.418Z,8.30
2019-01-31T10:56:53.960Z,7.25
2019-01-31T11:00:22.868Z,8.03
2019-01-31T11:03:43.642Z,6.30
2019-01-31T11:06:36.208Z,8.07
2019-01-31T11:09:54.573Z,7.90
2019-01-31T11:13:25.241Z,7.73
2019-01-31T11:16:20.609Z,7.13
2019-01-31T11:19:44.285Z,7.07
2019-01-31T11:22:31.905Z,7.07
2019-01-31T11:25:13.073Z,7.73
2019-01-31T11:28:13.541Z,7.93
2019-01-31T11:30:51.468Z,7.17
2019-01-31T11:33:48.893Z,7.33
2019-01-31T11:36:50.184Z,5.20
2019-01-31T11:39:51.003Z,6.03
2019-01-31T11:43:11.842Z,4.80
2019-01-31T11:46:03.966Z,5.50
2019-01-31T11:49:19.185Z,3.37
2019-01-31T11:52:40.752Z,3.10
2019-01-31T11:55:26.673Z,2.33
2019-01-31T11:58:18.222Z,2.33
2019-01-31T12:00:45.949Z,2.67
2019-01-31T12:03:13.549Z,2.70
2019-01-31T12:05:41.265Z,2.13
2019-01-31T12:08:09.016Z,2.60
2019-01-31T12:10:36.733Z,2.87
2019-01-31T12:13:04.749Z,2.20
2019-01-31T12:15:32.477Z,2.03
2019-01-31T12:18:00.302Z,2.70
2019-01-31T12:20:28.210Z,2.60
2019-01-31T12:22:56.640Z,2.03
2019-01-31T12:25:24.381Z,2.33
2019-01-31T12:27:52.089Z,2.03
2019-01-31T12:30:24.130Z,2.50
2019-01-31T12:32:51.829Z,2.53
2019-01-31T12:35:19.545Z,3.27
2019-01-31T12:37:47.255Z,5.50
2019-01-31T12:40:15.903Z,7.33
2019-01-31T12:42:43.661Z,3.03
2019-01-31T12:45:13.305Z,4.80
2019-01-31T12:47:41.053Z,3.10
2019-01-31T12:50:11.509Z,2.43
2019-01-31T12:52:39.245Z,1.83
2019-01-31T12:55:07.055Z,2.93
2019-01-31T12:57:34.777Z,2.60
2019-01-31T13:00:02.655Z,1.90
2019-01-31T13:02:30.369Z,1.97
2019-01-31T13:04:59.617Z,2.13
2019-01-31T13:07:27.345Z,3.50
2019-01-31T13:09:55.048Z,2.80
2019-01-31T13:12:22.785Z,2.73
2019-01-31T13:14:50.469Z,2.83
2019-01-31T13:17:18.192Z,3.53
2019-01-31T13:19:45.801Z,3.67
2019-01-31T13:22:13.523Z,3.63
2019-01-31T13:24:41.226Z,4.50
2019-01-31T13:27:09.253Z,4.97
2019-01-31T13:29:36.953Z,3.57
2019-01-31T13:32:04.724Z,3.80
2019-01-31T13:34:32.445Z,3.42
2019-01-31T13:37:00.174Z,3.33
2019-01-31T13:39:27.881Z,3.47
2019-01-31T13:41:55.604Z,3.10
2019-01-31T13:44:23.317Z,3.37
2019-01-31T13:46:51.086Z,3.20
2019-01-31T13:49:18.802Z,3.40
2019-01-31T13:51:46.522Z,4.97
2019-01-31T13:54:14.238Z,5.97
2019-01-31T13:56:45.786Z,6.00
2019-01-31T13:59:11.961Z,5.23
2019-01-31T14:01:39.681Z,4.70
2019-01-31T14:04:07.402Z,5.93
2019-01-31T14:06:35.128Z,5.10
2019-01-31T14:09:04.533Z,3.20
2019-01-31T14:11:32.249Z,3.87
2019-01-31T14:14:08.763Z,4.30
2019-01-31T14:16:29.496Z,4.37
2019-01-31T14:18:57.190Z,6.60
2019-01-31T14:21:24.885Z,3.83
2019-01-31T14:23:52.605Z,3.27
2019-01-31T14:26:20.313Z,3.30
2019-01-31T14:28:48.009Z,3.20
2019-01-31T14:31:15.734Z,2.67
2019-01-31T14:33:43.421Z,4.47
2019-01-31T14:36:11.150Z,3.03
2019-01-31T14:38:39.095Z,3.27
2019-01-31T14:41:06.818Z,4.70
2019-01-31T14:46:09.568Z,3.60
2019-01-31T14:48:37.601Z,4.30
2019-01-31T14:51:05.537Z,3.43
2019-01-31T14:53:33.278Z,3.87
2019-01-31T14:56:01.255Z,4.10
2019-01-31T14:58:29.227Z,3.90
2019-01-31T15:00:56.946Z,3.27
2019-01-31T15:03:24.768Z,3.23
2019-01-31T15:05:52.652Z,3.50
2019-01-31T15:08:20.436Z,3.20
2019-01-31T15:10:48.143Z,3.60
2019-01-31T15:13:16.058Z,5.40
2019-01-31T15:15:44.097Z,2.97
2019-01-31T15:18:11.941Z,2.77
2019-01-31T15:20:41.994Z,2.60
2019-01-31T15:23:09.749Z,4.53
2019-01-31T15:25:37.458Z,3.10
2019-01-31T15:28:05.209Z,3.23
2019-01-31T15:30:33.597Z,3.10
2019-01-31T15:33:02.176Z,3.33
2019-01-31T15:35:29.926Z,3.10
2019-01-31T15:38:02.478Z,3.00
2019-01-31T15:40:32.773Z,3.57
2019-01-31T15:43:03.769Z,4.33
2019-01-31T15:45:31.477Z,4.50
2019-01-31T15:47:59.222Z,4.17
2019-01-31T15:50:27.004Z,6.10
2019-01-31T15:52:54.725Z,5.20
2019-01-31T15:55:23.017Z,4.47
2019-01-31T15:57:50.765Z,4.17
2019-01-31T16:00:43.109Z,4.37
2019-01-31T16:03:17.965Z,4.90
2019-01-31T16:05:45.825Z,5.33
2019-01-31T16:08:13.764Z,6.73
2019-01-31T16:10:41.494Z,5.93
2019-01-31T16:13:09.386Z,5.50
2019-01-31T16:15:37.057Z,4.50
2019-01-31T16:18:05.824Z,3.07
2019-01-31T16:20:33.685Z,2.50
2019-01-31T16:23:01.385Z,4.07
2019-01-31T16:25:29.089Z,4.60
2019-01-31T16:28:01.050Z,4.00
2019-01-31T16:30:29.229Z,3.33
2019-01-31T16:32:56.945Z,3.37
2019-01-31T16:35:24.675Z,3.90
2019-01-31T16:37:52.742Z,6.30
2019-01-31T16:40:20.959Z,3.80
2019-01-31T16:43:48.794Z,5.33
2019-01-31T16:46:49.649Z,5.40
2019-01-31T16:49:17.847Z,3.83
2019-01-31T16:51:48.255Z,4.83
2019-01-31T16:57:45.745Z,8.47
2019-01-31T17:00:44.874Z,5.17
2019-01-31T17:03:20.532Z,8.07
2019-01-31T17:05:50.767Z,10.30
2019-01-31T17:08:59.269Z,22.50
2019-01-31T17:11:28.980Z,11.33
2019-01-31T17:15:30.897Z,10.67
2019-01-31T17:18:46.141Z,11.17
2019-01-31T17:22:00.521Z,13.47
2019-01-31T17:33:03.411Z,6.93
2019-01-31T17:40:35.792Z,14.17
2019-01-31T17:50:59.444Z,16.50
2019-01-31T17:54:59.019Z,13.87
2019-01-31T18:08:38.882Z,18.90
2019-01-31T18:12:08.262Z,20.70
2019-01-31T18:14:41.238Z,14.43
2019-01-31T18:17:10.508Z,20.27
2019-01-31T18:19:41.334Z,20.63
2019-01-31T18:25:37.419Z,19.03
2019-01-31T18:36:20.315Z,20.77
2019-01-31T18:42:08.339Z,14.50
2019-01-31T18:45:20.664Z,19.10
2019-01-31T18:48:49.178Z,18.60
2019-01-31T18:53:34.971Z,17.00
2019-01-31T19:01:45.871Z,13.40
2019-01-31T19:07:12.702Z,17.40
2019-01-31T19:20:10.380Z,43.87
2019-01-31T19:56:18.432Z,32.47
2019-01-31T19:58:15.798Z,41.67
2019-01-31T20:03:09.012Z,12.17
2019-01-31T20:16:33.948Z,6.37
2019-01-31T20:19:46.880Z,5.83
2019-01-31T20:23:11.937Z,5.40
2019-01-31T20:26:32.370Z,5.13
2019-01-31T20:29:33.092Z,7.53
2019-01-31T20:32:47.396Z,8.30
2019-01-31T20:35:25.346Z,8.73
2019-01-31T20:39:17.298Z,11.00
2019-01-31T20:43:04.783Z,8.60
2019-01-31T20:46:02.159Z,11.80
2019-01-31T20:48:30.528Z,11.30
2019-01-31T20:51:53.029Z,13.17
2019-01-31T20:58:15.374Z,17.37
2019-01-31T21:00:56.499Z,17.17
2019-01-31T21:03:55.531Z,15.47
2019-01-31T21:18:03.733Z,15.43
2019-01-31T21:21:05.241Z,15.47
2019-01-31T21:23:39.795Z,15.40
2019-01-31T21:27:09.431Z,16.60
2019-01-31T21:32:57.359Z,13.70
2019-01-31T21:35:36.767Z,14.13
2019-01-31T21:41:31.803Z,13.47
2019-01-31T21:56:03.261Z,13.70
2019-01-31T22:00:01.292Z,14.83
2019-01-31T22:09:01.234Z,13.37
2019-01-31T22:12:23.532Z,13.87
2019-01-31T22:23:55.448Z,9.87
2019-01-31T22:27:01.272Z,8.77
2019-01-31T22:30:11.248Z,10.17
2019-01-31T22:33:47.624Z,9.03
2019-01-31T22:42:42.493Z,9.27
2019-01-31T22:48:15.462Z,21.03
2019-01-31T22:50:44.999Z,25.23
2019-01-31T22:53:24.188Z,15.03
2019-01-31T22:55:52.319Z,13.07
2019-01-31T22:58:33.440Z,10.20
2019-01-31T23:02:04.812Z,8.73
2019-01-31T23:11:31.634Z,9.50
2019-01-31T23:14:07.115Z,9.40
2019-01-31T23:16:35.245Z,9.80
2019-01-31T23:19:03.166Z,9.60
2019-01-31T23:21:41.543Z,11.60
2019-01-31T23:24:28.748Z,10.53
2019-01-31T23:27:12.352Z,9.10
2019-01-31T23:30:01.236Z,8.33
2019-01-31T23:33:54.701Z,8.07
2019-01-31T23:35:26.693Z,6.47
2019-01-31T23:37:59.582Z,6.83
2019-01-31T23:40:48.126Z,7.63
2019-01-31T23:43:27.462Z,7.30
2019-01-31T23:46:02.772Z,6.80
2019-01-31T23:48:40.069Z,5.93
2019-01-31T23:51:10.146Z,5.73
2019-01-31T23:53:39.419Z,5.37
2019-01-31T23:56:12.010Z,6.33
2019-01-31T23:58:40.175Z,5.37
